createdAt,value
2019-03-29T00:00:07.531Z,62.70
2019-03-29T00:02:36.744Z,62.90
2019-03-29T00:05:05.861Z,62.80
2019-03-29T00:07:39.995Z,62.80
2019-03-29T00:10:06.391Z,62.70
2019-03-29T00:12:35.487Z,63.10
2019-03-29T00:15:05.659Z,64.10
2019-03-29T00:17:34.818Z,64.10
2019-03-29T00:20:06.344Z,63.10
2019-03-29T00:22:35.596Z,64.40
2019-03-29T00:25:04.893Z,64.10
2019-03-29T00:27:33.804Z,63.90
2019-03-29T00:30:02.848Z,64.60
2019-03-29T00:32:31.939Z,63.80
2019-03-29T00:35:00.990Z,64.80
2019-03-29T00:37:29.889Z,65.20
2019-03-29T00:39:59.050Z,64.30
2019-03-29T00:42:28.162Z,65.10
2019-03-29T00:44:56.987Z,64.50
2019-03-29T00:47:25.974Z,64.60
2019-03-29T00:49:54.769Z,63.50
2019-03-29T00:52:23.716Z,63.50
2019-03-29T00:54:52.807Z,63.40
2019-03-29T00:57:21.803Z,63.10
2019-03-29T00:59:50.567Z,63.40
2019-03-29T01:02:19.808Z,63.60
2019-03-29T01:04:49.008Z,64.00
2019-03-29T01:07:17.863Z,63.90
2019-03-29T01:09:46.908Z,63.00
2019-03-29T01:12:15.815Z,64.30
2019-03-29T01:14:44.838Z,64.60
2019-03-29T01:17:13.847Z,64.20
2019-03-29T01:19:42.914Z,63.80
2019-03-29T01:22:11.913Z,63.10
2019-03-29T01:24:41.443Z,64.30
2019-03-29T01:27:11.009Z,64.00
2019-03-29T01:29:40.292Z,64.60
2019-03-29T01:32:09.405Z,63.80
2019-03-29T01:34:38.347Z,63.80
2019-03-29T01:37:07.369Z,64.00
2019-03-29T01:39:36.529Z,64.30
2019-03-29T01:42:05.645Z,65.20
2019-03-29T01:44:34.755Z,65.30
2019-03-29T01:47:04.059Z,64.70
2019-03-29T01:49:33.522Z,64.40
2019-03-29T01:52:02.525Z,64.70
2019-03-29T01:54:31.634Z,65.40
2019-03-29T01:57:00.593Z,64.90
2019-03-29T01:59:29.555Z,66.10
2019-03-29T02:01:58.628Z,64.80
2019-03-29T02:04:27.585Z,64.60
2019-03-29T02:06:56.437Z,64.30
2019-03-29T02:09:25.579Z,64.60
2019-03-29T02:11:54.654Z,64.50
2019-03-29T02:14:23.658Z,64.70
2019-03-29T02:16:52.701Z,64.60
2019-03-29T02:19:21.870Z,64.60
2019-03-29T02:21:50.980Z,65.10
2019-03-29T02:24:20.148Z,64.80
2019-03-29T02:26:49.095Z,64.80
2019-03-29T02:29:18.161Z,65.00
2019-03-29T02:31:47.267Z,65.00
2019-03-29T02:34:16.415Z,65.10
2019-03-29T02:36:45.438Z,64.90
2019-03-29T02:39:14.683Z,64.20
2019-03-29T02:41:43.895Z,65.00
2019-03-29T02:44:12.746Z,64.60
2019-03-29T02:46:41.838Z,65.50
2019-03-29T02:49:12.688Z,64.60
2019-03-29T02:51:41.722Z,65.40
2019-03-29T02:54:10.541Z,65.00
2019-03-29T02:56:39.665Z,65.90
2019-03-29T02:59:08.682Z,65.20
2019-03-29T03:01:37.599Z,64.70
2019-03-29T03:04:06.652Z,65.20
2019-03-29T03:06:35.779Z,65.30
2019-03-29T03:09:14.019Z,65.30
2019-03-29T03:11:36.498Z,66.00
2019-03-29T03:14:05.493Z,67.20
2019-03-29T03:16:34.406Z,66.40
2019-03-29T03:19:03.372Z,65.80
2019-03-29T03:21:32.298Z,65.80
2019-03-29T03:24:01.451Z,66.80
2019-03-29T03:26:30.614Z,65.90
2019-03-29T03:28:59.778Z,66.60
2019-03-29T03:31:29.001Z,66.00
2019-03-29T03:33:57.975Z,66.60
2019-03-29T03:36:26.967Z,66.80
2019-03-29T03:38:55.758Z,66.00
2019-03-29T03:41:24.972Z,65.30
2019-03-29T03:43:53.760Z,65.80
2019-03-29T03:46:22.773Z,65.80
2019-03-29T03:48:51.762Z,66.00
2019-03-29T03:51:21.293Z,66.00
2019-03-29T03:53:50.373Z,65.40
2019-03-29T03:56:19.448Z,65.20
2019-03-29T03:58:48.426Z,65.70
2019-03-29T04:01:17.523Z,65.90
2019-03-29T04:03:46.674Z,65.10
2019-03-29T04:06:15.664Z,65.20
2019-03-29T04:08:44.568Z,65.90
2019-03-29T04:11:13.335Z,65.50
2019-03-29T04:13:42.400Z,65.40
2019-03-29T04:16:11.362Z,65.40
2019-03-29T04:18:40.200Z,65.20
2019-03-29T04:21:09.413Z,65.30
2019-03-29T04:23:38.292Z,65.30
2019-03-29T04:26:07.421Z,66.50
2019-03-29T04:28:36.360Z,65.10
2019-03-29T04:31:05.575Z,65.80
2019-03-29T04:33:34.480Z,66.10
2019-03-29T04:36:03.522Z,65.60
2019-03-29T04:38:32.604Z,65.60
2019-03-29T04:41:01.670Z,66.20
2019-03-29T04:43:30.926Z,66.10
2019-03-29T04:46:00.120Z,65.40
2019-03-29T04:48:29.089Z,66.30
2019-03-29T04:50:58.279Z,65.50
2019-03-29T04:53:27.260Z,66.00
2019-03-29T04:55:56.278Z,65.40
2019-03-29T04:58:25.453Z,65.50
2019-03-29T05:00:54.430Z,66.30
2019-03-29T05:03:23.476Z,65.70
2019-03-29T05:05:52.602Z,65.60
2019-03-29T05:08:21.748Z,65.60
2019-03-29T05:10:50.507Z,66.20
2019-03-29T05:13:19.428Z,66.20
2019-03-29T05:15:48.647Z,65.50
2019-03-29T05:18:17.543Z,66.10
2019-03-29T05:20:46.499Z,65.60
2019-03-29T05:23:15.502Z,65.50
2019-03-29T05:25:44.545Z,65.70
2019-03-29T05:28:13.645Z,66.30
2019-03-29T05:30:42.611Z,66.60
2019-03-29T05:33:11.422Z,66.10
2019-03-29T05:35:40.629Z,66.60
2019-03-29T05:38:09.638Z,66.00
2019-03-29T05:40:38.708Z,66.60
2019-03-29T05:43:07.832Z,66.60
2019-03-29T05:45:36.870Z,66.00
2019-03-29T05:48:05.997Z,66.10
2019-03-29T05:50:55.293Z,66.30
2019-03-29T05:53:24.308Z,67.30
2019-03-29T05:55:53.239Z,66.30
2019-03-29T05:58:22.415Z,66.50
2019-03-29T06:00:52.311Z,66.70
2019-03-29T06:03:21.822Z,67.40
2019-03-29T06:05:51.053Z,67.80
2019-03-29T06:08:20.036Z,67.10
2019-03-29T06:10:49.769Z,67.00
2019-03-29T06:13:19.316Z,67.60
2019-03-29T06:15:48.268Z,67.10
2019-03-29T06:18:17.377Z,67.00
2019-03-29T06:20:46.524Z,67.30
2019-03-29T06:23:15.751Z,67.60
2019-03-29T06:25:44.720Z,67.20
2019-03-29T06:28:13.756Z,67.20
2019-03-29T06:30:42.748Z,67.40
2019-03-29T06:33:11.932Z,67.40
2019-03-29T06:35:41.120Z,67.40
2019-03-29T06:38:10.027Z,67.30
2019-03-29T06:40:39.110Z,68.10
2019-03-29T06:43:08.247Z,68.00
2019-03-29T06:45:47.300Z,67.60
2019-03-29T06:48:08.061Z,67.80
2019-03-29T06:50:37.150Z,67.50
2019-03-29T06:53:06.491Z,68.50
2019-03-29T06:55:35.683Z,68.20
2019-03-29T06:58:04.954Z,67.60
2019-03-29T07:00:34.063Z,67.70
2019-03-29T07:03:03.220Z,67.70
2019-03-29T07:05:32.450Z,67.80
2019-03-29T07:08:01.469Z,67.80
2019-03-29T07:10:30.783Z,67.80
2019-03-29T07:12:59.791Z,67.70
2019-03-29T07:15:28.931Z,67.70
2019-03-29T07:17:58.212Z,67.70
2019-03-29T07:20:27.309Z,67.60
2019-03-29T07:22:56.558Z,67.60
2019-03-29T07:25:25.624Z,67.20
2019-03-29T07:30:23.266Z,66.90
2019-03-29T07:32:53.800Z,66.40
2019-03-29T07:35:22.987Z,66.20
2019-03-29T07:37:53.619Z,66.10
2019-03-29T07:42:51.519Z,64.70
2019-03-29T07:45:20.302Z,65.30
2019-03-29T07:47:49.273Z,64.00
2019-03-29T07:50:20.634Z,64.70
2019-03-29T07:52:53.920Z,63.60
2019-03-29T07:55:24.387Z,63.40
2019-03-29T07:57:53.456Z,64.30
2019-03-29T08:00:22.386Z,65.10
2019-03-29T08:02:51.507Z,65.90
2019-03-29T08:05:20.505Z,66.00
2019-03-29T08:07:49.317Z,64.10
2019-03-29T08:10:25.871Z,61.50
2019-03-29T08:12:49.755Z,62.00
2019-03-29T08:15:19.196Z,60.00
2019-03-29T08:17:50.158Z,59.20
2019-03-29T08:20:40.153Z,57.40
2019-03-29T08:22:49.742Z,54.90
2019-03-29T08:25:18.968Z,49.70
2019-03-29T08:27:48.156Z,47.20
2019-03-29T08:30:17.377Z,46.90
2019-03-29T08:32:47.271Z,47.90
2019-03-29T08:35:16.524Z,48.00
2019-03-29T08:37:45.656Z,46.40
2019-03-29T08:40:14.909Z,47.60
2019-03-29T08:42:44.090Z,43.70
2019-03-29T08:45:13.030Z,45.10
2019-03-29T08:47:42.200Z,43.50
2019-03-29T08:50:11.370Z,43.10
2019-03-29T08:52:40.291Z,41.80
2019-03-29T08:55:09.533Z,40.40
2019-03-29T08:57:38.589Z,40.30
2019-03-29T09:00:07.949Z,41.90
2019-03-29T09:02:37.288Z,43.30
2019-03-29T09:05:06.781Z,43.50
2019-03-29T09:07:44.537Z,41.20
2019-03-29T09:10:11.611Z,39.30
2019-03-29T09:12:41.108Z,38.50
2019-03-29T09:15:10.579Z,40.70
2019-03-29T09:17:40.111Z,40.00
2019-03-29T09:20:10.720Z,41.10
2019-03-29T09:22:40.019Z,40.30
2019-03-29T09:25:08.945Z,39.00
2019-03-29T09:27:38.078Z,37.80
2019-03-29T09:30:07.271Z,37.40
2019-03-29T09:32:36.328Z,39.00
2019-03-29T09:35:06.299Z,38.40
2019-03-29T09:37:35.554Z,37.70
2019-03-29T09:40:06.037Z,36.10
2019-03-29T09:42:35.032Z,37.00
2019-03-29T09:45:05.359Z,37.20
2019-03-29T09:47:40.157Z,37.30
2019-03-29T09:50:09.972Z,36.70
2019-03-29T09:52:37.297Z,34.20
2019-03-29T09:55:06.517Z,36.10
2019-03-29T09:57:38.150Z,34.80
2019-03-29T10:00:19.349Z,32.80
2019-03-29T10:02:40.248Z,35.00
2019-03-29T10:05:09.237Z,34.00
2019-03-29T10:07:38.302Z,33.10
2019-03-29T10:10:11.014Z,33.70
2019-03-29T10:12:43.809Z,33.10
2019-03-29T10:15:11.243Z,33.80
2019-03-29T10:17:47.511Z,33.90
2019-03-29T10:20:16.659Z,33.90
2019-03-29T10:22:45.848Z,33.20
2019-03-29T10:25:19.562Z,31.10
2019-03-29T10:27:45.629Z,34.00
2019-03-29T10:30:17.682Z,31.90
2019-03-29T10:32:46.909Z,32.10
2019-03-29T10:35:16.217Z,33.00
2019-03-29T10:37:45.072Z,32.90
2019-03-29T10:40:14.019Z,31.90
2019-03-29T10:42:56.670Z,31.40
2019-03-29T10:45:13.894Z,29.50
2019-03-29T10:47:52.390Z,29.00
2019-03-29T10:50:21.399Z,27.90
2019-03-29T10:52:50.565Z,30.30
2019-03-29T10:55:20.048Z,31.10
2019-03-29T10:57:50.957Z,31.20
2019-03-29T11:00:23.306Z,29.80
2019-03-29T11:02:52.417Z,31.10
2019-03-29T11:05:21.432Z,29.80
2019-03-29T11:07:50.536Z,29.10
2019-03-29T11:10:30.558Z,28.70
2019-03-29T11:13:11.869Z,29.80
2019-03-29T11:15:30.268Z,29.90
2019-03-29T11:17:59.420Z,30.40
2019-03-29T11:20:28.415Z,30.00
2019-03-29T11:22:57.596Z,30.30
2019-03-29T11:25:26.615Z,30.30
2019-03-29T11:27:55.759Z,29.50
2019-03-29T11:30:24.878Z,29.60
2019-03-29T11:32:54.047Z,29.60
2019-03-29T11:35:23.198Z,29.40
2019-03-29T11:37:52.245Z,28.30
2019-03-29T11:40:21.189Z,27.40
2019-03-29T11:42:50.106Z,28.30
2019-03-29T11:45:19.147Z,28.20
2019-03-29T11:47:48.547Z,27.90
2019-03-29T11:50:17.812Z,27.20
2019-03-29T11:52:46.908Z,26.70
2019-03-29T11:55:16.109Z,27.10
2019-03-29T11:57:45.092Z,26.30
2019-03-29T12:00:14.042Z,26.30
2019-03-29T12:02:43.063Z,26.80
2019-03-29T12:05:15.195Z,26.70
2019-03-29T12:07:47.128Z,26.70
2019-03-29T12:10:16.327Z,26.70
2019-03-29T12:12:45.126Z,26.20
2019-03-29T12:15:16.090Z,26.70
2019-03-29T12:17:45.307Z,26.40
2019-03-29T12:20:14.379Z,26.50
2019-03-29T12:22:43.236Z,25.90
2019-03-29T12:25:12.227Z,26.20
2019-03-29T12:27:41.332Z,26.00
2019-03-29T12:30:10.537Z,25.80
2019-03-29T12:32:39.716Z,25.60
2019-03-29T12:35:10.147Z,26.00
2019-03-29T12:37:39.416Z,25.90
2019-03-29T12:40:09.153Z,25.70
2019-03-29T12:42:38.484Z,25.40
2019-03-29T12:45:07.871Z,25.40
2019-03-29T12:47:37.003Z,25.60
2019-03-29T12:50:07.892Z,25.40
2019-03-29T12:52:36.950Z,25.70
2019-03-29T12:55:06.485Z,25.80
2019-03-29T12:57:38.781Z,25.70
2019-03-29T13:00:07.470Z,25.70
2019-03-29T13:02:36.829Z,26.50
2019-03-29T13:05:08.741Z,25.60
2019-03-29T13:07:37.602Z,25.80
2019-03-29T13:10:09.521Z,25.90
2019-03-29T13:12:38.415Z,26.00
2019-03-29T13:15:08.250Z,26.00
2019-03-29T13:17:37.271Z,25.90
2019-03-29T13:20:09.812Z,25.40
2019-03-29T13:22:38.737Z,24.70
2019-03-29T13:25:07.933Z,25.60
2019-03-29T13:27:36.928Z,25.50
2019-03-29T13:30:07.865Z,25.00
2019-03-29T13:32:36.979Z,25.60
2019-03-29T13:35:07.401Z,25.20
2019-03-29T13:37:36.575Z,25.50
2019-03-29T13:40:08.987Z,25.50
2019-03-29T13:42:38.113Z,25.10
2019-03-29T13:45:07.602Z,25.10
2019-03-29T13:47:37.332Z,25.60
2019-03-29T13:50:09.457Z,24.80
2019-03-29T13:52:38.578Z,24.50
2019-03-29T13:55:07.852Z,25.00
2019-03-29T13:57:37.010Z,24.60
2019-03-29T14:00:09.271Z,25.20
2019-03-29T14:02:38.366Z,25.00
2019-03-29T14:05:07.770Z,24.20
2019-03-29T14:07:36.788Z,24.90
2019-03-29T14:10:07.715Z,24.60
2019-03-29T14:12:37.088Z,24.80
2019-03-29T14:15:08.154Z,24.90
2019-03-29T14:17:37.149Z,25.30
2019-03-29T14:20:06.401Z,25.10
2019-03-29T14:22:35.479Z,25.30
2019-03-29T14:25:05.620Z,25.40
2019-03-29T14:27:34.696Z,25.40
2019-03-29T14:30:05.307Z,25.00
2019-03-29T14:32:34.659Z,25.00
2019-03-29T14:35:05.319Z,25.00
2019-03-29T14:37:35.480Z,25.00
2019-03-29T14:40:06.471Z,25.10
2019-03-29T14:42:35.754Z,24.70
2019-03-29T14:45:07.383Z,25.10
2019-03-29T14:47:43.317Z,25.30
2019-03-29T14:50:08.040Z,25.50
2019-03-29T14:52:37.208Z,25.60
2019-03-29T14:55:07.101Z,26.00
2019-03-29T14:57:36.077Z,26.30
2019-03-29T15:00:11.219Z,26.90
2019-03-29T15:02:40.296Z,27.40
2019-03-29T15:05:09.502Z,27.20
2019-03-29T15:07:38.416Z,27.50
2019-03-29T15:10:09.120Z,27.70
2019-03-29T15:12:38.244Z,28.00
2019-03-29T15:15:07.591Z,28.80
2019-03-29T15:17:36.560Z,29.50
2019-03-29T15:20:06.991Z,29.40
2019-03-29T15:22:36.125Z,29.10
2019-03-29T15:25:05.770Z,29.70
2019-03-29T15:27:34.828Z,29.50
2019-03-29T15:30:04.918Z,29.80
2019-03-29T15:32:33.817Z,30.50
2019-03-29T15:35:02.781Z,30.00
2019-03-29T15:37:31.633Z,30.70
2019-03-29T15:40:00.510Z,30.80
2019-03-29T15:42:29.598Z,30.30
2019-03-29T15:44:58.598Z,30.50
2019-03-29T15:47:27.631Z,30.60
2019-03-29T15:49:56.952Z,30.80
2019-03-29T15:52:25.962Z,31.30
2019-03-29T15:54:55.556Z,32.10
2019-03-29T15:57:24.727Z,32.50
2019-03-29T15:59:53.795Z,31.90
2019-03-29T16:02:22.837Z,31.60
2019-03-29T16:04:51.724Z,32.20
2019-03-29T16:07:20.720Z,31.80
2019-03-29T16:09:49.647Z,31.80
2019-03-29T16:12:18.570Z,31.90
2019-03-29T16:14:47.334Z,32.20
2019-03-29T16:17:16.415Z,32.80
2019-03-29T16:19:45.307Z,32.30
2019-03-29T16:22:14.312Z,32.30
2019-03-29T16:24:43.318Z,33.00
2019-03-29T16:27:12.379Z,32.50
2019-03-29T16:29:41.475Z,33.00
2019-03-29T16:32:10.665Z,32.90
2019-03-29T16:34:39.616Z,32.30
2019-03-29T16:37:08.487Z,33.00
2019-03-29T16:39:37.561Z,32.60
2019-03-29T16:42:06.641Z,32.70
2019-03-29T16:44:35.738Z,33.40
2019-03-29T16:47:04.635Z,33.50
2019-03-29T16:49:34.154Z,33.50
2019-03-29T16:52:03.228Z,33.50
2019-03-29T16:54:33.354Z,33.00
2019-03-29T16:57:02.224Z,33.60
2019-03-29T16:59:31.405Z,33.50
2019-03-29T17:02:00.516Z,33.00
2019-03-29T17:04:29.300Z,33.30
2019-03-29T17:06:58.449Z,34.00
2019-03-29T17:09:27.371Z,33.50
2019-03-29T17:11:56.463Z,33.60
2019-03-29T17:14:25.437Z,33.70
2019-03-29T17:16:54.397Z,34.40
2019-03-29T17:19:23.492Z,33.80
2019-03-29T17:21:52.501Z,34.50
2019-03-29T17:24:22.380Z,34.00
2019-03-29T17:26:51.397Z,34.70
2019-03-29T17:29:20.770Z,34.40
2019-03-29T17:31:49.718Z,34.70
2019-03-29T17:34:18.671Z,35.10
2019-03-29T17:36:47.709Z,34.90
2019-03-29T17:39:17.090Z,35.00
2019-03-29T17:41:46.179Z,35.10
2019-03-29T17:44:15.232Z,35.30
2019-03-29T17:46:44.252Z,35.70
2019-03-29T17:49:13.442Z,36.60
2019-03-29T17:51:42.276Z,36.70
2019-03-29T17:54:11.309Z,36.50
2019-03-29T17:56:40.483Z,37.00
2019-03-29T17:59:09.656Z,37.40
2019-03-29T18:01:39.510Z,37.80
2019-03-29T18:04:08.675Z,38.30
2019-03-29T18:06:37.626Z,38.50
2019-03-29T18:09:07.792Z,39.50
2019-03-29T18:11:37.054Z,39.60
2019-03-29T18:14:06.256Z,41.40
2019-03-29T18:16:35.324Z,39.90
2019-03-29T18:19:04.364Z,40.20
2019-03-29T18:21:33.400Z,41.40
2019-03-29T18:24:02.335Z,41.70
2019-03-29T18:26:31.338Z,42.00
2019-03-29T18:29:00.739Z,41.80
2019-03-29T18:31:29.842Z,42.20
2019-03-29T18:33:58.671Z,43.20
2019-03-29T18:36:27.532Z,42.70
2019-03-29T18:38:56.540Z,44.50
2019-03-29T18:41:25.661Z,44.50
2019-03-29T18:43:54.677Z,44.00
2019-03-29T18:46:23.921Z,44.60
2019-03-29T18:48:53.066Z,44.90
2019-03-29T18:51:22.336Z,45.50
2019-03-29T18:53:51.280Z,46.70
2019-03-29T18:56:20.367Z,45.90
2019-03-29T18:58:49.665Z,46.00
2019-03-29T19:01:18.594Z,47.10
2019-03-29T19:03:47.440Z,50.00
2019-03-29T19:06:16.534Z,48.50
2019-03-29T19:08:45.387Z,47.80
2019-03-29T19:11:14.382Z,48.20
2019-03-29T19:13:43.590Z,47.80
2019-03-29T19:16:12.553Z,48.40
2019-03-29T19:18:41.557Z,49.70
2019-03-29T19:21:10.471Z,49.70
2019-03-29T19:23:39.603Z,49.30
2019-03-29T19:26:08.754Z,49.80
2019-03-29T19:28:37.719Z,49.80
2019-03-29T19:31:06.748Z,50.40
2019-03-29T19:33:35.862Z,50.20
2019-03-29T19:36:05.026Z,49.30
2019-03-29T19:38:34.079Z,50.10
2019-03-29T19:41:03.182Z,51.00
2019-03-29T19:43:32.450Z,51.00
2019-03-29T19:46:01.644Z,50.80
2019-03-29T19:48:30.870Z,50.90
2019-03-29T19:51:00.090Z,50.80
2019-03-29T19:53:29.322Z,50.70
2019-03-29T19:55:58.393Z,50.30
2019-03-29T19:58:27.498Z,51.00
2019-03-29T20:00:56.509Z,51.40
2019-03-29T20:03:25.637Z,52.10
2019-03-29T20:05:54.803Z,51.60
2019-03-29T20:08:23.901Z,51.80
2019-03-29T20:10:53.105Z,52.10
2019-03-29T20:13:22.888Z,51.80
2019-03-29T20:15:52.601Z,52.60
2019-03-29T20:18:22.158Z,52.90
2019-03-29T20:20:51.374Z,52.40
2019-03-29T20:23:21.310Z,52.40
2019-03-29T20:25:50.666Z,52.80
2019-03-29T20:28:20.246Z,53.00
2019-03-29T20:30:49.509Z,53.00
2019-03-29T20:33:18.885Z,52.10
2019-03-29T20:35:48.362Z,52.10
2019-03-29T20:38:18.470Z,52.60
2019-03-29T20:40:48.239Z,53.80
2019-03-29T20:43:17.229Z,53.00
2019-03-29T20:45:46.121Z,52.90
2019-03-29T20:48:15.190Z,53.00
2019-03-29T20:50:44.323Z,54.30
2019-03-29T20:53:13.684Z,53.50
2019-03-29T20:55:42.634Z,54.20
2019-03-29T20:58:11.760Z,54.40
2019-03-29T21:00:40.944Z,54.60
2019-03-29T21:03:09.978Z,55.20
2019-03-29T21:05:38.920Z,54.40
2019-03-29T21:08:08.340Z,54.30
2019-03-29T21:10:38.402Z,54.40
2019-03-29T21:13:07.872Z,55.10
2019-03-29T21:15:36.916Z,56.10
2019-03-29T21:18:06.102Z,55.50
2019-03-29T21:20:35.556Z,55.10
2019-03-29T21:23:04.650Z,55.30
2019-03-29T21:25:33.876Z,55.40
2019-03-29T21:28:03.092Z,56.50
2019-03-29T21:30:32.162Z,56.10
2019-03-29T21:33:01.108Z,56.90
2019-03-29T21:35:30.253Z,56.60
2019-03-29T21:37:59.415Z,55.70
2019-03-29T21:40:28.462Z,55.90
2019-03-29T21:42:57.549Z,55.40
2019-03-29T21:45:29.031Z,57.20
2019-03-29T21:48:09.937Z,56.00
2019-03-29T21:50:28.089Z,56.50
2019-03-29T21:52:57.224Z,57.90
2019-03-29T21:55:26.379Z,56.90
2019-03-29T21:57:55.339Z,56.60
2019-03-29T22:00:24.458Z,57.20
2019-03-29T22:02:53.424Z,58.00
2019-03-29T22:05:22.579Z,57.90
2019-03-29T22:07:51.553Z,57.40
2019-03-29T22:10:20.549Z,58.00
2019-03-29T22:12:49.496Z,57.90
2019-03-29T22:15:18.544Z,57.70
2019-03-29T22:17:47.464Z,58.20
2019-03-29T22:20:16.586Z,58.20
2019-03-29T22:22:45.573Z,57.90
2019-03-29T22:25:14.782Z,58.60
2019-03-29T22:27:43.750Z,57.90
2019-03-29T22:30:12.719Z,58.00
2019-03-29T22:32:41.906Z,58.20
2019-03-29T22:35:10.806Z,58.30
2019-03-29T22:37:40.030Z,58.50
2019-03-29T22:40:09.240Z,59.30
2019-03-29T22:42:38.435Z,58.60
2019-03-29T22:45:07.707Z,58.20
2019-03-29T22:47:36.786Z,58.50
2019-03-29T22:50:06.409Z,58.90
2019-03-29T22:52:35.618Z,59.00
2019-03-29T22:55:07.288Z,58.40
2019-03-29T22:57:36.337Z,58.80
2019-03-29T23:00:24.248Z,58.20
2019-03-29T23:02:56.857Z,60.20
2019-03-29T23:05:25.695Z,58.70
2019-03-29T23:07:54.791Z,58.30
2019-03-29T23:10:23.692Z,58.50
2019-03-29T23:12:52.759Z,57.80
2019-03-29T23:15:21.786Z,58.30
2019-03-29T23:17:50.843Z,58.70
2019-03-29T23:20:19.824Z,58.90
2019-03-29T23:22:48.979Z,58.90
2019-03-29T23:25:18.316Z,58.80
2019-03-29T23:27:47.365Z,58.60
2019-03-29T23:30:16.478Z,58.80
2019-03-29T23:32:45.678Z,59.60
2019-03-29T23:35:15.029Z,59.00
2019-03-29T23:37:43.983Z,59.30
2019-03-29T23:40:13.147Z,58.80
2019-03-29T23:42:42.216Z,58.90
2019-03-29T23:45:11.207Z,58.90
2019-03-29T23:47:40.188Z,59.70
2019-03-29T23:50:09.154Z,59.60
2019-03-29T23:52:38.383Z,60.50
2019-03-29T23:55:07.610Z,59.90
2019-03-29T23:57:36.682Z,60.20
